^^

Nearby METAR Reports

 

LIRH - Frosinone (it-Af, Italy
Distance from station: SO 5km
Dati ricevuti: 25/09/2020 16:55
Non Attivo
Temporale, Parz. nuvoloso
Temporale, Parz. nuvoloso
 Vento da ONO
Vento: ONO 15 km/h
Temperatura: 22°C
P.to Rugiada: 18°C
Umidità: 78%
Barometro: 999 hPa
Summary: Temporale
Clouds: Parz. nuvoloso
Visibility: 7 km
Cloud details: Parz. nuvoloso 914 m
Parz. nuvoloso 1067 m
2020/09/25 14:55 LIRH 251455Z 29008KT 7000 TS SCT030CB SCT035TCU 22/18 Q0999
LIRL - Latina (it-Afb), Italy
Distance from station: OSO 40km
Dati ricevuti: 25/09/2020 19:55
Non Attivo
Parz. nuvoloso
Parz. nuvoloso
 Vento da O
Vento: O 28 km/h
Temperatura: 20°C
P.to Rugiada: 12°C
Umidità: 60%
Barometro: 1001 hPa
Clouds: Parz. nuvoloso
Visibility: 10 km
Cloud details: Few Clouds 610 m
Parz. nuvoloso 762 m
2020/09/25 17:55 LIRL 251755Z 26015KT 9999 FEW020CB SCT025 20/12 Q1001
 
LIRG - Guidonia (it-Afb, Italy
Distance from station: NO 63km
Dati ricevuti: 25/09/2020 19:55
Non Attivo
Parz. nuvoloso
Parz. nuvoloso
 Vento da OSO
Vento: OSO 26 km/h, Raffica: 46 km/h
Temperatura: 19°C
P.to Rugiada: 9°C
Umidità: 52%
Barometro: 1000 hPa
Clouds: Parz. nuvoloso
Visibility: 10 km
Cloud details: Few Clouds 914 m
Parz. nuvoloso 1219 m
2020/09/25 17:55 LIRG 251755Z 24014G25KT 9999 FEW030 SCT040 19/09 Q1000
LIRA - Ciampino(It-Afb/, Italy
Distance from station: ONO 64km
Dati ricevuti: 26/09/2020 07:50
Light thunderstorm, Pioggia, Parz. nuvoloso
Light thunderstorm, Pioggia, Parz. nuvoloso
 Vento da SSO
Vento: SSO 20 km/h
Temperatura: 12°C
P.to Rugiada: 8°C
Umidità: 77%
Barometro: 998 hPa
Summary: Light thunderstorm, Pioggia
Clouds: Parz. nuvoloso
Visibility: 10 km
Cloud details: Few Clouds 610 m
Parz. nuvoloso 914 m
2020/09/26 05:50 LIRA 260550Z 21011KT 9999 -TSRA FEW020CB SCT030 12/08 Q0998
 
LIRU - Roma/Urbe (it-Af, Italy
Distance from station: ONO 76km
Dati ricevuti: 25/09/2020 19:50
Non Attivo
Few Clouds
Few Clouds
 Vento da O
Vento: O 35 km/h, Raffica: 52 km/h
Temperatura: 20°C
P.to Rugiada: 9°C
Umidità: 49%
Barometro: 999 hPa
Clouds: Few Clouds
Visibility: 10 km
Cloud details: Few Clouds 762 m
2020/09/25 17:50 LIRU 251750Z 26019G28KT 220V280 9999 FEW025 20/09 Q0999
LIRE - Pratica Di Mare(, Italy
Distance from station: O 77km
Dati ricevuti: 26/09/2020 06:55
Light thunderstorm, Pioggia, Nuvoloso
Light thunderstorm, Pioggia, Nuvoloso
 Vento da SE
Vento: SE 11 km/h
Temperatura: 11°C
P.to Rugiada: 10°C
Umidità: 94%
Barometro: 997 hPa
Summary: Light thunderstorm, Pioggia
Clouds: Molto nuvoloso
Visibility: 7 km
Cloud details: Parz. nuvoloso 610 m
Molto nuvoloso 914 m
2020/09/26 04:55 LIRE 260455Z 14006KT 7000 -TSRA SCT020CB BKN030 11/10 Q0997 RMK OVC VIS MIN 7000 WIND THR13 19005KT WIND THR31 18007KT WHT
 
LIQN - Rieti, Italy
Distance from station: NNO 92km
Dati ricevuti: 25/09/2020 19:50
Non Attivo
Sereno
Sereno
 Vento da SO
Vento: SO 24 km/h
Temperatura: 17°C
P.to Rugiada: 9°C
Umidità: 59%
Barometro: 998 hPa
Summary: Sereno
Visibility: greater than 10 km
2020/09/25 17:50 LIQN 251750Z 22013KT CAVOK 17/09 Q0998
LIRK - Terminillo, Italy
Distance from station: NNO 93km
Dati ricevuti: 25/09/2020 16:55
Non Attivo

 Vento da varies
Vento: varies 19 km/h, Raffica: 39 km/h
Temperatura: 9°C
Temperatura del Vento: 6°C
P.to Rugiada: 9°C
Umidità: 100%
Barometro: 1004 hPa
2020/09/25 14:55 LIRK 251455Z AUTO VRB10G21KT //// 09/09 Q1004
 
LIRF - Roma/Fiumicino, Italy
Distance from station: O 94km
Dati ricevuti: 26/09/2020 07:50
Temporale, Few clouds
Temporale, Few clouds
 Vento da S
Vento: S 11 km/h
Temperatura: 13°C
P.to Rugiada: 10°C
Umidità: 82%
Barometro: 998 hPa
Summary: Temporale
Clouds: Few Clouds
Visibility: 10 km
Cloud details: Few Clouds 914 m
2020/09/26 05:50 LIRF 260550Z 17006KT 9999 TS FEW030CB 13/10 Q0998 NOSIG
LIRM - Grazzanise (it-A, Italy
Distance from station: SE 94km
Dati ricevuti: 26/09/2020 06:55
Light thunderstorm, Pioggia, Nuvoloso
Light thunderstorm, Pioggia, Nuvoloso
 Vento da varies
Vento: varies 0 km/h
Temperatura: 16°C
P.to Rugiada: 12°C
Umidità: 77%
Barometro: 997 hPa
Summary: Light thunderstorm, Pioggia
Clouds: Molto nuvoloso
Visibility: 5 km
Cloud details: Few Clouds 305 m
Few Clouds 457 m
Molto nuvoloso 762 m
2020/09/26 04:55 LIRM 260455Z /////KT 5000 -TSRA FEW010 FEW015CB BKN025 16/12 Q0997
 
LIBP - Pescara, Italy
Distance from station: NE 108km
Dati ricevuti: 26/09/2020 07:50
Parz. nuvoloso
Parz. nuvoloso
 Vento da SO
Vento: SO 31 km/h
Temperatura: 12°C
P.to Rugiada: 7°C
Umidità: 72%
Barometro: 996 hPa
Clouds: Parz. nuvoloso
Visibility: 10 km
Cloud details: Few Clouds 1890 m
Parz. nuvoloso 3658 m
2020/09/26 05:50 LIBP 260550Z AUTO 23017KT 200V260 9999 FEW062/// SCT120/// 12/07 Q0996
LIRN - Napoli/Capodichino, Italy
Distance from station: SE 120km
Dati ricevuti: 26/09/2020 07:50
Light thunderstorm, Pioggia, Nuvoloso
Light thunderstorm, Pioggia, Nuvoloso
 Vento da O
Vento: O 17 km/h
Temperatura: 15°C
P.to Rugiada: 10°C
Umidità: 72%
Barometro: 998 hPa
Summary: Light thunderstorm, Pioggia
Clouds: Molto nuvoloso
Visibility: 9 km
Cloud details: Few Clouds 762 m
Molto nuvoloso 1219 m
2020/09/26 05:50 LIRN 260550Z 28009KT 260V350 9000 -TSRA FEW025CB BKN040 15/10 Q0998 RERA NOSIG
 
LIRV - Viterbo (it-Mil), Italy
Distance from station: NO 133km
Dati ricevuti: 26/09/2020 06:55
Few Clouds
Few Clouds
 Vento da SSO
Vento: SSO 4 km/h
Temperatura: 11°C
P.to Rugiada: 8°C
Umidità: 82%
Barometro: 997 hPa
Clouds: Few Clouds
Visibility: 10 km
Cloud details: Few Clouds 610 m
2020/09/26 04:55 LIRV 260455Z 21002KT 9999 FEW020CB 11/08 Q0997
LIQC - Capri, Italy
Distance from station: SSE 145km
Dati ricevuti: 26/09/2020 06:55
Temporale, Nuvoloso
Temporale, Nuvoloso
 Vento da O
Vento: O 37 km/h
Temperatura: 19°C
P.to Rugiada: 11°C
Umidità: 60%
Barometro: 996 hPa
Summary: Temporale
Clouds: Molto nuvoloso
Visibility: 10 km
Cloud details: Parz. nuvoloso 457 m
Molto nuvoloso 610 m
2020/09/26 04:55 LIQC 260455Z 26020KT 9999 TS SCT015CB BKN020 19/11 Q0996 RMK OVC QUK 5 QUL 4 W VIS MAR 10 KM VIS MIN 9999
 
LIRT - Trevico, Italy
Distance from station: ESE 172km
Dati ricevuti: 25/09/2020 19:55
Non Attivo
Light thunderstorm, Pioggia, Nebbia, Coperto
Light thunderstorm, Pioggia, Nebbia, Coperto
 Vento da ONO
Vento: ONO 22 km/h
Temperatura: 14°C
P.to Rugiada: 12°C
Umidità: 88%
Barometro: 1002 hPa
Summary: Light thunderstorm, Pioggia, Nebbia
Clouds: Coperto
Visibility: 0 km
Cloud details: Coperto 0 m
2020/09/25 17:55 LIRT 251755Z 30012KT 0000 -TSRA FG VV000 14/12 Q1002 RMK MON INVIS VAL INVIS VIS MIN 0000
LIRZ - Perugia, Italy
Distance from station: NNO 172km
Dati ricevuti: 26/09/2020 07:50
Sereno
Sereno
 Vento da OSO
Vento: OSO 6 km/h
Temperatura: 10°C
P.to Rugiada: 10°C
Umidità: 100%
Barometro: 996 hPa
Clouds: Sereno
Visibility: 10 km
2020/09/26 05:50 LIRZ 260550Z AUTO 24003KT 190V310 9999 NCD 10/10 Q0996
 
LIRI - Pontecagnano (af, Italy
Distance from station: SE 177km
Dati ricevuti: 25/09/2020 18:50
Non Attivo
Temporale, Parz. nuvoloso
Temporale, Parz. nuvoloso
 Vento da ENE
Vento: ENE 7 km/h
Temperatura: 20°C
P.to Rugiada: 18°C
Umidità: 88%
Barometro: 1000 hPa
Summary: Temporale
Clouds: Parz. nuvoloso
Visibility: 10 km
Cloud details: Parz. nuvoloso 762 m
Parz. nuvoloso 1219 m
2020/09/25 16:50 LIRI 251650Z 06004KT 9999 TS SCT025CB SCT040 20/18 Q1000
LIBF - Foggia/Gino Lisa, Italy
Distance from station: E 183km
Dati ricevuti: 25/09/2020 17:50
Non Attivo
Parz. nuvoloso
Parz. nuvoloso
 Vento da OSO
Vento: OSO 26 km/h
Temperatura: 25°C
P.to Rugiada: 15°C
Umidità: 54%
Barometro: 999 hPa
Clouds: Parz. nuvoloso
Visibility: 10 km
Cloud details: Parz. nuvoloso 914 m
Parz. nuvoloso 1372 m
2020/09/25 15:50 LIBF 251550Z 24014KT 9999 SCT030 SCT045CB 25/15 Q0999
 
LIQO - Monte Argentario, Italy
Distance from station: ONO 195km
Dati ricevuti: 25/09/2020 13:55
Non Attivo
Parz. nuvoloso
Parz. nuvoloso
 Vento da OSO
Vento: OSO 35 km/h
Temperatura: 20°C
P.to Rugiada: 16°C
Umidità: 78%
Barometro: 1001 hPa
Clouds: Parz. nuvoloso
Visibility: 10 km
Cloud details: Few Clouds 61 m
Parz. nuvoloso 305 m
2020/09/25 11:55 LIQO 251155Z 25019KT 9999 FEW002TCU SCT010 20/16 Q1001 RMK BKN VAL CLD SCT NC VIS MIN 9999
LIBA - Amendola (it-Afb, Italy
Distance from station: E 198km
Dati ricevuti: 26/09/2020 05:55
Non Attivo
Parz. nuvoloso
Parz. nuvoloso
 Vento da S
Vento: S 6 km/h
Temperatura: 15°C
P.to Rugiada: 8°C
Umidità: 63%
Barometro: 998 hPa
Clouds: Parz. nuvoloso
Visibility: 10 km
Cloud details: Parz. nuvoloso 1524 m
2020/09/26 03:55 LIBA 260355Z 19003KT 9999 SCT050 15/08 Q0998 RMK OVC BKN080 VIS MIN 9999 WIND THR11 20006KT WIND THR29 /////KT BLU
 
LIBN - Lecce (it-Afb), Italy
Dati ricevuti: 26/09/2020 06:55
Molto nuvoloso
Molto nuvoloso
 Vento da OSO
Vento: OSO 13 km/h
Temperatura: 20°C
P.to Rugiada: 14°C
Umidità: 69%
Barometro: 1000 hPa
Clouds: Molto nuvoloso
Visibility: 10 km
Cloud details: Few Clouds 610 m
Molto nuvoloso 1067 m
2020/09/26 04:55 LIBN 260455Z 24007KT 9999 FEW020TCU BKN035 20/14 Q1000 RMK BKN VIS MIN 9999 WIND THR14 24008KT WIND THR32 23010KT BLU
LIPY - Ancona-Falconara, Italy
Dati ricevuti: 26/09/2020 07:50
Molto nuvoloso
Molto nuvoloso
 Vento da O
Vento: O 17 km/h
Temperatura: 13°C
P.to Rugiada: 8°C
Umidità: 72%
Barometro: 995 hPa
Clouds: Molto nuvoloso
Visibility: 10 km
Cloud details: Molto nuvoloso 2042 m
2020/09/26 05:50 LIPY 260550Z AUTO 26009KT 230V290 9999 BKN067/// 13/08 Q0995
 
LICJ - Palermo-Punta Raisi, Italy
Dati ricevuti: 26/09/2020 07:50
Molto nuvoloso
Molto nuvoloso
 Vento da O
Vento: O 52 km/h
Temperatura: 22°C
P.to Rugiada: 13°C
Umidità: 57%
Barometro: 1006 hPa
Clouds: Molto nuvoloso
Visibility: 7 km
Cloud details: Few Clouds 1402 m
Molto nuvoloso 3048 m
2020/09/26 05:50 LICJ 260550Z AUTO 27028KT 7000 FEW046/// BKN100/// 22/13 Q1006 RERA
LIEB - Capo Bellavista, Italy
Dati ricevuti: 26/09/2020 06:55
Parz. nuvoloso
Parz. nuvoloso
 Vento da NO
Vento: NO 57 km/h, Raffica: 94 km/h
Temperatura: 14°C
P.to Rugiada: 8°C
Umidità: 67%
Barometro: 1003 hPa
Clouds: Parz. nuvoloso
Visibility: 10 km
Cloud details: Few Clouds 914 m
Parz. nuvoloso 1067 m
2020/09/26 04:55 LIEB 260455Z 31031G51KT 9999 FEW030 SCT035 14/08 Q1003 RMK SCT QUK 2 QUL 0 VIS MAR 25 KM MON NW CIME INC VIS MIN 9999
 
LIEC - Capo Carbonara, Italy
Dati ricevuti: 25/09/2020 22:55
Non Attivo
Few Clouds
Few Clouds
 Vento da O
Vento: O 39 km/h
Temperatura: 16°C
P.to Rugiada: 13°C
Umidità: 83%
Barometro: 1008 hPa
Clouds: Few Clouds
Visibility: 10 km
Cloud details: Few Clouds 610 m
2020/09/25 20:55 LIEC 252055Z 27021KT 9999 FEW020TCU 16/13 Q1008 RMK BKN SCT070 QUK / QUL / VIS MAR 18 KM VIS MIN 9999
LIED - Cagliari-Decimomannu(It-A, Italy
Dati ricevuti: 26/09/2020 06:55
Pioviggine, Parz. nuvoloso
Pioviggine, Parz. nuvoloso
 Vento da ONO
Vento: ONO 30 km/h
Temperatura: 16°C
P.to Rugiada: 12°C
Umidità: 77%
Barometro: 1006 hPa
Summary: Pioviggine
Clouds: Parz. nuvoloso
Visibility: 10 km
Cloud details: Parz. nuvoloso 823 m
2020/09/26 04:55 LIED 260455Z 30016KT 9999 -RA SCT027 16/12 Q1006 RMK BKN VIS MIN 9999 WIND THR35 30017KT WIND THR17 31018KT BLU
 
LIEE - Cagliari-Elmas(A, Italy
Dati ricevuti: 26/09/2020 07:50
Pioviggine, Parz. nuvoloso
Pioviggine, Parz. nuvoloso
 Vento da NO
Vento: NO 37 km/h, Raffica: 59 km/h
Temperatura: 18°C
P.to Rugiada: 9°C
Umidità: 56%
Barometro: 1008 hPa
Summary: Pioviggine
Clouds: Parz. nuvoloso
Visibility: 10 km
Cloud details: Few Clouds 610 m
Parz. nuvoloso 914 m
2020/09/26 05:50 LIEE 260550Z 32020G32KT 9999 -RA FEW020 SCT030CB 18/09 Q1008
LIEO - Olbia-Costa Smeralda, Italy
Dati ricevuti: 26/09/2020 07:50
Parz. nuvoloso
Parz. nuvoloso
 Vento da O
Vento: O 39 km/h, Raffica: 63 km/h
Temperatura: 16°C
P.to Rugiada: 8°C
Umidità: 59%
Barometro: 1002 hPa
Clouds: Parz. nuvoloso
Visibility: 10 km
Cloud details: Few Clouds 610 m
Parz. nuvoloso 914 m
2020/09/26 05:50 LIEO 260550Z 27021G34KT 9999 R05/P1500D R23/1300U FEW020 SCT030 16/08 Q1002
 
LIEA - Alghero, Italy
Dati ricevuti: 26/09/2020 07:50
Parz. nuvoloso
Parz. nuvoloso
 Vento da ONO
Vento: ONO 31 km/h, Raffica: 69 km/h
Temperatura: 17°C
P.to Rugiada: 6°C
Umidità: 49%
Barometro: 1006 hPa
Clouds: Parz. nuvoloso
Visibility: 10 km
Cloud details: Parz. nuvoloso 1067 m
2020/09/26 05:50 LIEA 260550Z 29017G37KT 260V320 9999 SCT035 17/06 Q1006
LICA - Catanzaro-Lamezia Terme, Italy
Dati ricevuti: 26/09/2020 07:50
Molto nuvoloso
Molto nuvoloso
 Vento da O
Vento: O 17 km/h
Temperatura: 20°C
P.to Rugiada: 15°C
Umidità: 73%
Barometro: 1002 hPa
Clouds: Molto nuvoloso
Visibility: 10 km
Cloud details: Few Clouds 1433 m
Molto nuvoloso 2438 m
2020/09/26 05:50 LICA 260550Z AUTO 27009KT 9999 FEW047/// BKN080/// 20/15 Q1002
 
LIBQ - Cosenza-Monte Scuro, Italy
Dati ricevuti: 26/09/2020 06:55
Pioviggine, Nebbia
Pioviggine, Nebbia
 Vento da OSO
Vento: OSO 19 km/h, Raffica: 44 km/h
Temperatura: 6°C
Temperatura del Vento: 3°C
P.to Rugiada: 6°C
Umidità: 100%
Barometro: 1003 hPa
Summary: Pioviggine, Nebbia
Visibility: 0 km
2020/09/26 04:55 LIBQ 260455Z 25010G24KT 200V290 0000 -RA FG VV/// 06/06 Q1003 RMK MON INVIS VAL INVIS VIS MIN 0000
LICR - Reggio Calabria, Italy
Dati ricevuti: 26/09/2020 06:50
Parz. nuvoloso
Parz. nuvoloso
 Vento da NNO
Vento: NNO 24 km/h, Raffica: 48 km/h
Temperatura: 22°C
P.to Rugiada: 9°C
Umidità: 44%
Barometro: 1004 hPa
Clouds: Parz. nuvoloso
Visibility: 10 km
Cloud details: Parz. nuvoloso 914 m
2020/09/26 04:50 LICR 260450Z 33013G26KT 290V350 9999 SCT030 22/09 Q1004
 
LIBV - Bari-Gioia Del Colle, Italy
Dati ricevuti: 26/09/2020 06:55
Few Clouds
Few Clouds
 Vento da SSO
Vento: SSO 11 km/h
Temperatura: 14°C
P.to Rugiada: 8°C
Umidità: 67%
Barometro: 999 hPa
Clouds: Few Clouds
Visibility: 10 km
Cloud details: Few Clouds 1219 m
2020/09/26 04:55 LIBV 260455Z 20006KT 9999 FEW040 14/08 Q0999 RMK BKN SCT110 VIS MIN 9999 WIND THR32 21005KT WIND THR14 19007KT BLU
LIBD - Bari-Palese Macchie, Italy
Dati ricevuti: 26/09/2020 07:50
Few Clouds
Few Clouds
 Vento da SSO
Vento: SSO 11 km/h
Temperatura: 15°C
P.to Rugiada: 10°C
Umidità: 72%
Barometro: 998 hPa
Clouds: Few Clouds
Visibility: 10 km
Cloud details: Few Clouds 1372 m
2020/09/26 05:50 LIBD 260550Z 20006KT 9999 FEW045 15/10 Q0998 R25/010095
 
LIBR - Brindisi-Casale, Italy
Dati ricevuti: 26/09/2020 07:50
Parz. nuvoloso
Parz. nuvoloso
 Vento da O
Vento: O 19 km/h
Temperatura: 19°C
P.to Rugiada: 10°C
Umidità: 56%
Barometro: 999 hPa
Clouds: Parz. nuvoloso
Visibility: 10 km
Cloud details: Few Clouds 610 m
Parz. nuvoloso 1219 m
2020/09/26 05:50 LIBR 260550Z 26010KT 9999 FEW020 SCT040 19/10 Q0999
LIRT - Trevico, Italy
Dati ricevuti: 25/09/2020 19:55
Non Attivo
Light thunderstorm, Pioggia, Nebbia, Coperto
Light thunderstorm, Pioggia, Nebbia, Coperto
 Vento da ONO
Vento: ONO 22 km/h
Temperatura: 14°C
P.to Rugiada: 12°C
Umidità: 88%
Barometro: 1002 hPa
Summary: Light thunderstorm, Pioggia, Nebbia
Clouds: Coperto
Visibility: 0 km
Cloud details: Coperto 0 m
2020/09/25 17:55 LIRT 251755Z 30012KT 0000 -TSRA FG VV000 14/12 Q1002 RMK MON INVIS VAL INVIS VIS MIN 0000
 
LICB - Comiso, Italy
Dati ricevuti: 26/09/2020 07:50
Parz. nuvoloso
Parz. nuvoloso
 Vento da O
Vento: O 17 km/h
Temperatura: 19°C
P.to Rugiada: 10°C
Umidità: 56%
Barometro: 1007 hPa
Clouds: Parz. nuvoloso
Visibility: 10 km
Cloud details: Few Clouds 1890 m
Parz. nuvoloso 2469 m
2020/09/26 05:50 LICB 260550Z AUTO 28009KT 250V310 9999 FEW062/// SCT081/// 19/10 Q1007
LICL - Gela, Italy
Dati ricevuti: 25/09/2020 19:55
Non Attivo
Sereno
Sereno
 Vento da O
Vento: O 19 km/h
Temperatura: 27°C
Indice di Calore: 31°C
P.to Rugiada: 25°C
Umidità: 89%
Summary: Sereno
Visibility: greater than 10 km
2020/09/25 17:55 LICL 251755Z 27010KT CAVOK 27/25 Q//// RMK BKN BKN080 QUK / QUL / VIS MAR 10 KM VIS MIN 9999
 
LIBN - Lecce (it-Afb), Italy
Dati ricevuti: 26/09/2020 06:55
Molto nuvoloso
Molto nuvoloso
 Vento da OSO
Vento: OSO 13 km/h
Temperatura: 20°C
P.to Rugiada: 14°C
Umidità: 69%
Barometro: 1000 hPa
Clouds: Molto nuvoloso
Visibility: 10 km
Cloud details: Few Clouds 610 m
Molto nuvoloso 1067 m
2020/09/26 04:55 LIBN 260455Z 24007KT 9999 FEW020TCU BKN035 20/14 Q1000 RMK BKN VIS MIN 9999 WIND THR14 24008KT WIND THR32 23010KT BLU
LICJ - Palermo-Punta Raisi, Italy
Dati ricevuti: 26/09/2020 07:50
Molto nuvoloso
Molto nuvoloso
 Vento da O
Vento: O 52 km/h
Temperatura: 22°C
P.to Rugiada: 13°C
Umidità: 57%
Barometro: 1006 hPa
Clouds: Molto nuvoloso
Visibility: 7 km
Cloud details: Few Clouds 1402 m
Molto nuvoloso 3048 m
2020/09/26 05:50 LICJ 260550Z AUTO 27028KT 7000 FEW046/// BKN100/// 22/13 Q1006 RERA
 
LICZ - Catania-Sigonella (nas), Italy
Dati ricevuti: 26/09/2020 06:55
Few Clouds
Few Clouds
 Vento da O
Vento: O 30 km/h
Temperatura: 21°C
P.to Rugiada: 16°C
Umidità: 73%
Barometro: 1005 hPa
Clouds: Few Clouds
Visibility: 10 km
Cloud details: Few Clouds 2743 m
2020/09/26 04:55 LICZ 260455Z 26016KT 9999 FEW090 21/16 Q1005 RMK FEW VIS MIN 9999 WIND THR28 27018KT WIND THR10 26015KT A2969 BLU
LICC - Catania-Fontanarossa, Italy
Dati ricevuti: 26/09/2020 07:50
Sereno
Sereno
 Vento da OSO
Vento: OSO 30 km/h
Temperatura: 21°C
P.to Rugiada: 9°C
Umidità: 46%
Barometro: 1004 hPa
Summary: Sereno
Visibility: greater than 10 km
2020/09/26 05:50 LICC 260550Z 25016KT CAVOK 21/09 Q1004
 
LICT - Trapani-Birgi (a, Italy
Dati ricevuti: 26/09/2020 07:07
Pioviggine, Parz. nuvoloso
Pioviggine, Parz. nuvoloso
 Vento da NO
Vento: NO 63 km/h, Raffica: 83 km/h
Temperatura: 19°C
P.to Rugiada: 13°C
Umidità: 68%
Barometro: 1007 hPa
Summary: Pioviggine
Clouds: Parz. nuvoloso
Visibility: 9 km
Cloud details: Parz. nuvoloso 671 m
Parz. nuvoloso 1219 m
2020/09/26 05:07 LICT 260507Z 32034G45KT 9000 -RA SCT022 SCT040 19/13 Q1007
LICD - Agrigento-Lampedusa, Italy
Dati ricevuti: 26/09/2020 07:50
Few Clouds
Few Clouds
 Vento da NO
Vento: NO 35 km/h
Temperatura: 23°C
P.to Rugiada: 12°C
Umidità: 50%
Barometro: 1009 hPa
Clouds: Few Clouds
Visibility: 10 km
Cloud details: Few Clouds 1433 m
2020/09/26 05:50 LICD 260550Z AUTO 31019KT 9999 FEW047/// 23/12 Q1009
 
LICG - Pantelleria(It-A, Italy
Dati ricevuti: 26/09/2020 06:50
Parz. nuvoloso
Parz. nuvoloso
 Vento da O
Vento: O 31 km/h, Raffica: 52 km/h
Temperatura: 19°C
P.to Rugiada: 12°C
Umidità: 64%
Barometro: 1009 hPa
Clouds: Parz. nuvoloso
Visibility: 10 km
Cloud details: Few Clouds 305 m
Parz. nuvoloso 853 m
2020/09/26 04:50 LICG 260450Z 27017G28KT 9999 FEW010 SCT028 19/12 Q1009
LIPX - Villafranca(Cv/M, Italy
Dati ricevuti: 26/09/2020 07:50
Few Clouds
Few Clouds
 Vento da NE
Vento: NE 6 km/h
Temperatura: 11°C
P.to Rugiada: 8°C
Umidità: 82%
Barometro: 995 hPa
Clouds: Few Clouds
Visibility: 10 km
Cloud details: Few Clouds 1829 m
2020/09/26 05:50 LIPX 260550Z 04003KT 9999 FEW060 11/08 Q0995
 
LIPO - Brescia/Montichiari, Italy
Dati ricevuti: 26/09/2020 07:50
Sereno
Sereno
 Vento da N
Vento: N 7 km/h
Temperatura: 9°C
Temperatura del Vento: 8°C
P.to Rugiada: 8°C
Umidità: 94%
Barometro: 996 hPa
Clouds: Sereno
Visibility: 10 km
2020/09/26 05:50 LIPO 260550Z AUTO 01004KT 270V050 9999 NCD 09/08 Q0996
LIPL - Ghedi (it-Afb), Italy
Dati ricevuti: 26/09/2020 06:55
Few Clouds
Few Clouds
 Vento da ENE
Vento: ENE 4 km/h
Temperatura: 11°C
P.to Rugiada: 8°C
Umidità: 82%
Barometro: 994 hPa
Clouds: Few Clouds
Visibility: 10 km
Cloud details: Few Clouds 1219 m
2020/09/26 04:55 LIPL 260455Z 06002KT 9999 FEW040 11/08 Q0994 RMK SCT VIS MIN 9999 WIND THR31 03001KT WIND THR13 04002KT BLU
 
LIMP - Parma, Italy
Dati ricevuti: 26/09/2020 06:59
Few Clouds
Few Clouds
 Vento da ONO
Vento: ONO 17 km/h
Temperatura: 13°C
P.to Rugiada: 3°C
Umidità: 51%
Barometro: 995 hPa
Clouds: Few Clouds
Visibility: 10 km
Cloud details: Few Clouds 1829 m
2020/09/26 04:59 LIMP 260459Z 30009KT 9999 FEW060 13/03 Q0995
LIMS - Piacenza (it-Afb, Italy
Dati ricevuti: 25/09/2020 19:55
Non Attivo
Few Clouds
Few Clouds
 Vento da O
Vento: O 20 km/h
Temperatura: 14°C
P.to Rugiada: 8°C
Umidità: 67%
Barometro: 994 hPa
Clouds: Few Clouds
Visibility: 10 km
Cloud details: Few Clouds 914 m
2020/09/25 17:55 LIMS 251755Z 26011KT 230V300 9999 FEW030 14/08 Q0994
 
LIPF - Ferrara (aut), Italy
Dati ricevuti: 25/09/2020 19:55
Non Attivo
Molto nuvoloso
Molto nuvoloso
 Vento da varies
Vento: varies 0 km/h
Temperatura: 17°C
P.to Rugiada: 7°C
Umidità: 52%
Barometro: 992 hPa
Clouds: Molto nuvoloso
Visibility: 10 km
Cloud details: Few Clouds 762 m
Molto nuvoloso 914 m
2020/09/25 17:55 LIPF 251755Z /////KT 9999 FEW025CB BKN030 17/07 Q0992
LIPE - Bologna/Borgo (a, Italy
Dati ricevuti: 26/09/2020 07:50
Few Clouds
Few Clouds
 Vento da OSO
Vento: OSO 11 km/h
Temperatura: 12°C
P.to Rugiada: 5°C
Umidità: 63%
Barometro: 996 hPa
Clouds: Few Clouds
Visibility: 10 km
Cloud details: Few Clouds 2256 m
2020/09/26 05:50 LIPE 260550Z 25006KT 9999 FEW074 12/05 Q0996
 
LIPU - Padova (civ/It-A, Italy
Dati ricevuti: 25/09/2020 15:00
Non Attivo
Few Clouds
Few Clouds
 Vento da SSO
Vento: SSO 28 km/h, Raffica: 54 km/h
Temperatura: 26°C
P.to Rugiada: 11°C
Umidità: 39%
Barometro: 991 hPa
Clouds: Few Clouds
Visibility: 10 km
Cloud details: Few Clouds 610 m
2020/09/25 13:00 LIPU 251300Z 21015G29KT 9999 FEW020 26/11 Q0991
LIME - Bergamo/Orio Ser, Italy
Dati ricevuti: 26/09/2020 07:50
Sereno
Sereno
 Vento da NO
Vento: NO 9 km/h
Temperatura: 9°C
Temperatura del Vento: 7°C
P.to Rugiada: 3°C
Umidità: 66%
Barometro: 996 hPa
Summary: Sereno
Visibility: greater than 10 km
2020/09/26 05:50 LIME 260550Z 32005KT 300V360 CAVOK 09/03 Q0996 NOSIG
 
LIMT - Cisa Pass, Italy
Dati ricevuti: 23/09/2019 13:55
Non Attivo
Nebbia
Nebbia
 Vento da calm
Vento: Calma
Temperatura: 10°C
P.to Rugiada: 10°C
Umidità: 100%
Barometro: 1014 hPa
Summary: Nebbia
Visibility: 0 km
2019/09/23 11:55 LIMT 231155Z 00000KT 0000 FG VV/// 10/10 Q1014 RMK MON INVIS VAL INVIS VIS MIN 0000
LIVC - Cimone Mountain, Italy
Dati ricevuti: 26/09/2020 06:55

 Vento da NO
Vento: NO 56 km/h
Temperatura: -1°C
Temperatura del Vento: -10°C
P.to Rugiada: -7°C
Umidità: 64%
Barometro: 998 hPa
2020/09/26 04:55 LIVC 260455Z AUTO 32030KT //// M01/M07 Q0998
 
LIVP - Paganella Mounta, Italy
Dati ricevuti: 26/09/2020 05:55
Non Attivo
Molto nuvoloso
Molto nuvoloso
 Vento da N
Vento: N 22 km/h
Temperatura: -4°C
Temperatura del Vento: -11°C
P.to Rugiada: -7°C
Umidità: 80%
Barometro: 991 hPa
Clouds: Molto nuvoloso
Visibility: 10 km
Cloud details: Molto nuvoloso 305 m
2020/09/26 03:55 LIVP 260355Z 35012KT 9999 BKN010 M04/M07 Q0991
LIML - Milano/Linate, Italy
Dati ricevuti: 26/09/2020 07:50
Sereno
Sereno
 Vento da S
Vento: S 13 km/h
Temperatura: 9°C
Temperatura del Vento: 7°C
P.to Rugiada: 7°C
Umidità: 87%
Barometro: 997 hPa
Summary: Sereno
Visibility: greater than 10 km
2020/09/26 05:50 LIML 260550Z 19007KT CAVOK 09/07 Q0997 NOSIG
 
LIPS - Istrana (it-Afb), Italy
Dati ricevuti: 26/09/2020 06:55
Sereno
Sereno
 Vento da O
Vento: O 7 km/h
Temperatura: 12°C
P.to Rugiada: 11°C
Umidità: 94%
Barometro: 995 hPa
Summary: Sereno
Visibility: greater than 10 km
2020/09/26 04:55 LIPS 260455Z 28004KT CAVOK 12/11 Q0995 RMK BKN BKN130 VIS MIN 9999 WIND THR26 23004KT WIND THR08 26004KT BLU
LIPH - Treviso(Civ/It-A, Italy
Dati ricevuti: 26/09/2020 07:50
Sereno
Sereno
 Vento da OSO
Vento: OSO 11 km/h
Temperatura: 12°C
P.to Rugiada: 8°C
Umidità: 77%
Barometro: 995 hPa
Summary: Sereno
Visibility: greater than 10 km
2020/09/26 05:50 LIPH 260550Z 25006KT CAVOK 12/08 Q0995
 
LIPZ - Venezia/Tessera, Italy
Dati ricevuti: 26/09/2020 07:50
Molto nuvoloso
Molto nuvoloso
 Vento da O
Vento: O 9 km/h
Temperatura: 12°C
P.to Rugiada: 8°C
Umidità: 77%
Barometro: 995 hPa
Clouds: Molto nuvoloso
Visibility: 10 km
Cloud details: Parz. nuvoloso 762 m
Molto nuvoloso 1981 m
2020/09/26 05:50 LIPZ 260550Z 28005KT 9999 SCT025 BKN065 12/08 Q0995 NOSIG
LIQW - Sarzana/Luni, Italy
Dati ricevuti: 25/09/2020 13:55
Non Attivo
Parz. nuvoloso
Parz. nuvoloso
 Vento da varies
Vento: varies 22 km/h, Raffica: 43 km/h
Temperatura: 20°C
P.to Rugiada: 9°C
Umidità: 49%
Barometro: 998 hPa
Clouds: Parz. nuvoloso
Visibility: 10 km
Cloud details: Parz. nuvoloso 610 m
Parz. nuvoloso 762 m
2020/09/25 11:55 LIQW 251155Z VRB12G23KT 9999 SCT020 SCT025 20/09 Q0998
 
LIVR - Rolle Pass, Italy
Dati ricevuti: 26/09/2020 06:55
Coperto
Coperto
 Vento da NNO
Vento: NNO 31 km/h, Raffica: 63 km/h
Temperatura: 2°C
Temperatura del Vento: -4°C
P.to Rugiada: -7°C
Umidità: 52%
Barometro: 989 hPa
Clouds: Coperto
Visibility: 8 km
Cloud details: Coperto 1219 m
2020/09/26 04:55 LIVR 260455Z 33017G34KT 8000 OVC040 02/M07 Q0989 RMK OVC MON LIB VIS MIN 8000
LIPK - Forli (civ/It-Af, Italy
Dati ricevuti: 25/09/2020 17:50
Non Attivo
Few Clouds
Few Clouds
 Vento da SO
Vento: SO 22 km/h
Temperatura: 21°C
P.to Rugiada: 7°C
Umidità: 40%
Barometro: 993 hPa
Clouds: Few Clouds
Visibility: 10 km
Cloud details: Few Clouds 914 m
2020/09/25 15:50 LIPK 251550Z 23012KT 9999 FEW030 21/07 Q0993
 
LIMV - Giovi Pass, Italy
Dati ricevuti: 25/09/2020 15:55
Non Attivo
Thunderstorm rain, Nuvoloso
Thunderstorm rain, Nuvoloso
 Vento da varies
Vento: varies 0 km/h
Temperatura: 10°C
P.to Rugiada: 9°C
Umidità: 94%
Barometro: 996 hPa
Summary: Thunderstorm Rain
Clouds: Molto nuvoloso
Visibility: 8 km
Cloud details: Molto nuvoloso 366 m
2020/09/25 13:55 LIMV 251355Z /////KT 8000 TSRA BKN012CB 10/09 Q0996 RERA RMK BKN MON N INC S LIB VAL FOSCHIA VIS MIN 5000N
LIPB - Bolzano(Civ/It-A, Italy
Dati ricevuti: 26/09/2020 07:50
Few Clouds
Few Clouds
 Vento da varies
Vento: varies 4 km/h
Temperatura: 8°C
P.to Rugiada: 7°C
Umidità: 93%
Barometro: 996 hPa
Clouds: Few Clouds
Visibility: 10 km
Cloud details: Few Clouds 2134 m
2020/09/26 05:50 LIPB 260550Z VRB02KT 9999 FEW070 08/07 Q0996
 
LIVD - Bolzano-Dobbiaco, Italy
Dati ricevuti: 25/09/2020 19:55
Non Attivo
Pioggia, Mist, Coperto
Pioggia, Mist, Coperto
 Vento da varies
Vento: varies 0 km/h
Temperatura: 6°C
P.to Rugiada: 4°C
Umidità: 87%
Barometro: 999 hPa
Summary: Pioggia, Mist
Clouds: Coperto
Visibility: 5 km
Cloud details: Coperto 213 m
2020/09/25 17:55 LIVD 251755Z /////KT 5000 RA BR OVC007 06/04 Q0999 RMK OVC VIS MIN 5000 GRN
LIVE - Bolzano-Passo Resia, Italy
Dati ricevuti: 26/09/2020 06:55
Molto nuvoloso
Molto nuvoloso
 Vento da ENE
Vento: ENE 9 km/h
Temperatura: 5°C
Temperatura del Vento: 3°C
P.to Rugiada: 4°C
Umidità: 93%
Barometro: 994 hPa
Clouds: Molto nuvoloso
Visibility: 10 km
Cloud details: Molto nuvoloso 914 m
2020/09/26 04:55 LIVE 260455Z 06005KT 9999 BKN030 05/04 Q0994 RMK BKN VIS MIN 9999
 
LIMH - Aosta-Pian Rosa (mtn T, Italy
Dati ricevuti: 26/09/2020 06:55
Light snow, Freezing, Nebbia
Light snow, Freezing, Nebbia
 Vento da N
Vento: N 52 km/h, Raffica: 78 km/h
Temperatura: -15°C
Temperatura del Vento: -29°C
P.to Rugiada: -15°C
Umidità: 100%
Barometro: 999 hPa
Summary: Light snow, Freezing, Nebbia
Visibility: 0 km
2020/09/26 04:55 LIMH 260455Z 36028G42KT 0050 -SN FZFG VV/// M15/M15 Q0999 RMK MON INVIS VAL INVIS VIS MIN 0050
LIMZ - Cuneo/Levaldigi, Italy
Dati ricevuti: 26/09/2020 07:50

 Vento da O
Vento: O 9 km/h
Temperatura: 11°C
P.to Rugiada: -3°C
Umidità: 38%
Barometro: 999 hPa
Visibility: 10 km
2020/09/26 05:50 LIMZ 260550Z AUTO 27005KT 230V300 9999 ///////// 11/M03 Q0999
 
LIMK - Torino-Bric Della Croce, Italy
Dati ricevuti: 26/09/2020 05:55
Non Attivo
Sereno
Sereno
 Vento da ONO
Vento: ONO 30 km/h
Temperatura: 13°C
P.to Rugiada: -4°C
Umidità: 31%
Barometro: 998 hPa
Summary: Sereno
Visibility: greater than 10 km
2020/09/26 03:55 LIMK 260355Z 29016KT CAVOK 13/M04 Q0998
LIMN - Novara-Cameri (it-Afb), Italy
Dati ricevuti: 25/09/2020 19:55
Non Attivo
Sereno
Sereno
 Vento da OSO
Vento: OSO 7 km/h
Temperatura: 13°C
P.to Rugiada: 8°C
Umidità: 72%
Barometro: 995 hPa
Summary: Sereno
Visibility: greater than 10 km
2020/09/25 17:55 LIMN 251755Z 25004KT CAVOK 13/08 Q0995 RMK BKN SCT100 SCT140 VIS MIN 9999 BLU
 
LIPA - Pordenone-Aviano (it/Us-Af, Italy
Dati ricevuti: 25/09/2020 19:55
Non Attivo
Molto nuvoloso
Molto nuvoloso
 Vento da S
Vento: S 13 km/h
Temperatura: 17°C
P.to Rugiada: 14°C
Umidità: 83%
Barometro: 990 hPa
Clouds: Molto nuvoloso
Visibility: 10 km
Cloud details: Few Clouds 914 m
Molto nuvoloso 1067 m
2020/09/25 17:55 LIPA 251755Z 19007KT 9999 FEW030CB BKN035 17/14 Q0990 RMK BKN VIS MIN 9999 WIND THR05 /////KT WIND THR23 /////KT A2925 BLU
LIPI - Udine-Rivolto (it-Afb), Italy
Dati ricevuti: 25/09/2020 11:55
Non Attivo
Parz. nuvoloso
Parz. nuvoloso
 Vento da E
Vento: E 15 km/h
Temperatura: 20°C
P.to Rugiada: 17°C
Umidità: 83%
Barometro: 997 hPa
Clouds: Parz. nuvoloso
Visibility: 10 km
Cloud details: Parz. nuvoloso 274 m
Parz. nuvoloso 457 m
2020/09/25 09:55 LIPI 250955Z 10008KT 9999 SCT009 SCT015 20/17 Q0997 RMK BKN VIS MIN 9999 WIND THR06 11007KT WIND THR24 10008KT BLU
 
LIVO - Udine-Tarvisio, Italy
Dati ricevuti: 25/09/2020 19:55
Non Attivo
Light thunderstorm, Pioggia, Mist, Nuvoloso
Light thunderstorm, Pioggia, Mist, Nuvoloso
 Vento da ESE
Vento: ESE 4 km/h
Temperatura: 11°C
P.to Rugiada: 10°C
Umidità: 94%
Barometro: 993 hPa
Summary: Light thunderstorm, Pioggia, Mist
Clouds: Molto nuvoloso
Visibility: 4 km
Cloud details: Few Clouds 366 m
Molto nuvoloso 457 m
2020/09/25 17:55 LIVO 251755Z 11002KT 4000 -TSRA BR FEW012CB BKN015 11/10 Q0993 RMK OVC VIS MIN 4000
LIPQ - Trieste-Ronchi Dei Legionari, Italy
Dati ricevuti: 26/09/2020 07:50
Pioviggine, Coperto
Pioviggine, Coperto
 Vento da varies
Vento: varies 4 km/h
Temperatura: 11°C
P.to Rugiada: 10°C
Umidità: 94%
Barometro: 993 hPa
Summary: Pioviggine
Clouds: Coperto
Visibility: 10 km
Cloud details: Coperto 2225 m
2020/09/26 05:50 LIPQ 260550Z AUTO VRB02KT 9999 -RA OVC073/// 11/10 Q0993
 
LIVT - Trieste, Italy
Dati ricevuti: 25/09/2020 19:55
Non Attivo
Pioviggine, Coperto
Pioviggine, Coperto
 Vento da varies
Vento: varies 0 km/h
Temperatura: 16°C
P.to Rugiada: 14°C
Umidità: 88%
Barometro: 992 hPa
Summary: Pioviggine
Clouds: Coperto
Visibility: 10 km
Cloud details: Coperto 914 m
2020/09/25 17:55 LIVT 251755Z /////KT 9999 -RA OVC030 16/14 Q0992 RMK OVC QUK / QUL / VIS MAR 20 KM VIS MIN 9999
LIRQ - Firenze/Peretola, Italy
Dati ricevuti: 26/09/2020 07:50
Few Clouds
Few Clouds
 Vento da varies
Vento: varies 4 km/h
Temperatura: 10°C
P.to Rugiada: 10°C
Umidità: 100%
Barometro: 997 hPa
Clouds: Few Clouds
Visibility: 10 km
Cloud details: Few Clouds 2438 m
2020/09/26 05:50 LIRQ 260550Z VRB02KT 9999 FEW080 10/10 Q0997
 
LIPK - Forli (civ/It-Af, Italy
Dati ricevuti: 25/09/2020 17:50
Non Attivo
Few Clouds
Few Clouds
 Vento da SO
Vento: SO 22 km/h
Temperatura: 21°C
P.to Rugiada: 7°C
Umidità: 40%
Barometro: 993 hPa
Clouds: Few Clouds
Visibility: 10 km
Cloud details: Few Clouds 914 m
2020/09/25 15:50 LIPK 251550Z 23012KT 9999 FEW030 21/07 Q0993
LIRS - Grosseto (it-Afb, Italy
Dati ricevuti: 26/09/2020 06:55
Parz. nuvoloso
Parz. nuvoloso
 Vento da varies
Vento: varies 4 km/h
Temperatura: 14°C
P.to Rugiada: 9°C
Umidità: 72%
Barometro: 996 hPa
Clouds: Parz. nuvoloso
Visibility: 10 km
Cloud details: Few Clouds 457 m
Parz. nuvoloso 762 m
2020/09/26 04:55 LIRS 260455Z VRB02KT 9999 FEW015 SCT025 14/09 Q0996
 
LIRP - Pisa (civ/It-Afb, Italy
Dati ricevuti: 26/09/2020 07:45
Few Clouds
Few Clouds
 Vento da varies
Vento: varies 4 km/h
Temperatura: 8°C
P.to Rugiada: 8°C
Umidità: 100%
Barometro: 996 hPa
Clouds: Few Clouds
Visibility: 10 km
Cloud details: Few Clouds 1829 m
2020/09/26 05:45 LIRP 260545Z VRB02KT 9999 FEW060 08/08 Q0996 NOSIG
LIVF - Frontone, Italy
Dati ricevuti: 25/09/2020 21:55
Non Attivo
Parz. nuvoloso
Parz. nuvoloso
 Vento da SO
Vento: SO 22 km/h
Temperatura: 10°C
Temperatura del Vento: 7°C
P.to Rugiada: 6°C
Umidità: 76%
Barometro: 995 hPa
Clouds: Parz. nuvoloso
Visibility: 10 km
Cloud details: Parz. nuvoloso 457 m
Parz. nuvoloso 610 m
2020/09/25 19:55 LIVF 251955Z 23012KT 9999 SCT015TCU SCT020 10/06 Q0995
 
LIPC - Cervia (it-Afb), Italy
Dati ricevuti: 26/09/2020 06:55
Few Clouds
Few Clouds
 Vento da OSO
Vento: OSO 15 km/h
Temperatura: 10°C
Temperatura del Vento: 8°C
P.to Rugiada: 8°C
Umidità: 88%
Barometro: 996 hPa
Clouds: Few Clouds
Visibility: 10 km
Cloud details: Few Clouds 1524 m
2020/09/26 04:55 LIPC 260455Z 25008KT 9999 FEW050 10/08 Q0996
LIPR - Rimini (civ/It-A, Italy
Dati ricevuti: 26/09/2020 07:50
Molto nuvoloso
Molto nuvoloso
 Vento da O
Vento: O 17 km/h
Temperatura: 12°C
P.to Rugiada: 7°C
Umidità: 72%
Barometro: 996 hPa
Clouds: Molto nuvoloso
Visibility: 10 km
Cloud details: Molto nuvoloso 3048 m
2020/09/26 05:50 LIPR 260550Z AUTO 26009KT 9999 BKN100/// 12/07 Q0996
 
LIRX - Monte Calamita, Italy
Dati ricevuti: 25/09/2020 19:55
Non Attivo
Parz. nuvoloso
Parz. nuvoloso
 Vento da ONO
Vento: ONO 52 km/h
Temperatura: 16°C
P.to Rugiada: 11°C
Umidità: 72%
Barometro: 997 hPa
Clouds: Parz. nuvoloso
Visibility: 10 km
Cloud details: Parz. nuvoloso 152 m
2020/09/25 17:55 LIRX 251755Z 29028KT 9999 SCT005 16/11 Q0997 RMK BKN SCT200 VIS MIN 9999 VIS MAR 20 KM
LIVM - Punta Marina/Rav, Italy
Dati ricevuti: 26/09/2020 06:55

 Vento da O
Vento: O 6 km/h
Temperatura: 11°C
P.to Rugiada: 10°C
Umidità: 94%
Barometro: 995 hPa
2020/09/26 04:55 LIVM 260455Z AUTO 28003KT 230V320 //// 11/10 Q0995